Time;durP1;ratioP1;P1;durP2;ratioP2;P2;SDS_P1;SDS_P2;PMS_P1;PMS_P2;Temp;Humidity;BMP_temperature;BMP_pressure;BME280_temperature;BME280_humidity;BME280_pressure;Samples;Min_cycle;Max_cycle;Signal;HPM_P1;HPM_P2
2022/07/25 00:01:47;;;;;;;5.78;4.25;;;;;;;;;;5028568;28;20093;-74
2022/07/25 00:04:13;;;;;;;4.78;3.90;;;;;;;;;;5028460;28;20132;-75
2022/07/25 00:06:40;;;;;;;5.35;4.38;;;;;;;;;;5029303;28;21294;-74
2022/07/25 00:09:06;;;;;;;5.70;4.78;;;;;;;;;;5030024;28;20038;-74
2022/07/25 00:11:32;;;;;;;5.78;5.20;;;;;;;;;;5029272;28;20073;-74
2022/07/25 00:13:59;;;;;;;6.28;5.60;;;;;;;;;;5029416;28;20065;-73
2022/07/25 00:16:25;;;;;;;5.53;4.80;;;;;;;;;;5026788;28;20050;-74
2022/07/25 00:18:51;;;;;;;5.53;4.85;;;;;;;;;;5009491;28;20053;-74
2022/07/25 00:21:17;;;;;;;5.47;4.97;;;;;;;;;;5029521;28;20460;-73
2022/07/25 00:23:43;;;;;;;5.82;4.72;;;;;;;;;;5012419;28;20049;-74
2022/07/25 00:26:09;;;;;;;6.07;5.47;;;;;;;;;;5028518;28;20070;-74
2022/07/25 00:28:35;;;;;;;5.15;4.65;;;;;;;;;;5010935;28;20049;-74
2022/07/25 00:31:01;;;;;;;5.43;4.53;;;;;;;;;;5028379;28;20041;-74
2022/07/25 00:33:27;;;;;;;5.40;4.90;;;;;;;;;;5008246;28;20046;-74
2022/07/25 00:35:53;;;;;;;5.07;4.57;;;;;;;;;;5027181;28;20041;-74
2022/07/25 00:38:19;;;;;;;6.53;5.32;;;;;;;;;;5026674;28;20041;-74
2022/07/25 00:40:45;;;;;;;5.05;4.45;;;;;;;;;;5026748;28;20038;-74
2022/07/25 00:43:11;;;;;;;6.07;5.47;;;;;;;;;;5025965;28;20133;-74
2022/07/25 00:45:37;;;;;;;6.28;5.63;;;;;;;;;;5025014;28;20057;-73
2022/07/25 00:48:03;;;;;;;5.82;5.13;;;;;;;;;;5025345;28;20060;-74
2022/07/25 00:50:30;;;;;;;5.82;5.22;;;;;;;;;;5027173;28;20045;-74
2022/07/25 00:52:56;;;;;;;5.82;5.22;;;;;;;;;;5007637;28;20038;-73
2022/07/25 00:55:23;;;;;;;6.63;5.10;;;;;;;;;;5026674;28;20050;-74
2022/07/25 00:57:49;;;;;;;6.53;4.90;;;;;;;;;;5026640;28;20042;-74
2022/07/25 01:00:16;;;;;;;6.63;5.18;;;;;;;;;;5018699;28;20042;-74
2022/07/25 01:02:42;;;;;;;6.10;5.25;;;;;;;;;;5007957;28;20490;-74
2022/07/25 01:05:09;;;;;;;5.35;4.85;;;;;;;;;;4992863;28;20103;-74
2022/07/25 01:07:36;;;;;;;7.05;5.43;;;;;;;;;;4991349;28;20050;-74
2022/07/25 01:10:02;;;;;;;5.20;4.70;;;;;;;;;;5005815;28;20042;-74
2022/07/25 01:12:29;;;;;;;7.68;5.20;;;;;;;;;;5009379;28;20057;-74
2022/07/25 01:14:55;;;;;;;5.43;4.80;;;;;;;;;;5008259;28;20046;-74
2022/07/25 01:17:21;;;;;;;6.40;5.22;;;;;;;;;;5026844;28;20073;-74
2022/07/25 01:19:47;;;;;;;5.65;5.15;;;;;;;;;;5024867;28;20057;-74
2022/07/25 01:22:13;;;;;;;5.72;5.00;;;;;;;;;;5008695;28;20042;-74
2022/07/25 01:24:39;;;;;;;5.80;5.15;;;;;;;;;;5025971;28;20107;-74
2022/07/25 01:27:05;;;;;;;6.60;5.78;;;;;;;;;;5007182;28;20413;-74
2022/07/25 01:29:31;;;;;;;6.20;5.40;;;;;;;;;;5025024;28;20485;-74
2022/07/25 01:31:57;;;;;;;6.10;5.32;;;;;;;;;;5026733;28;20046;-74
2022/07/25 01:34:23;;;;;;;6.50;5.00;;;;;;;;;;5024937;28;20064;-74
2022/07/25 01:36:49;;;;;;;6.05;5.20;;;;;;;;;;5025905;28;20046;-74
2022/07/25 01:39:15;;;;;;;5.82;5.28;;;;;;;;;;5026031;28;20048;-74
2022/07/25 01:41:41;;;;;;;6.35;5.20;;;;;;;;;;5008566;28;20474;-74
2022/07/25 01:44:07;;;;;;;6.03;5.50;;;;;;;;;;5023501;28;20065;-74
2022/07/25 01:46:33;;;;;;;5.90;5.30;;;;;;;;;;5023336;28;20054;-74
2022/07/25 01:48:59;;;;;;;6.95;5.90;;;;;;;;;;5024421;28;20053;-74
2022/07/25 01:51:26;;;;;;;6.85;5.75;;;;;;;;;;5024559;28;20056;-74
2022/07/25 01:53:52;;;;;;;7.18;6.07;;;;;;;;;;5023843;28;20088;-72
2022/07/25 01:56:18;;;;;;;7.97;6.20;;;;;;;;;;5022745;28;20084;-75
2022/07/25 01:58:44;;;;;;;6.60;6.00;;;;;;;;;;5023089;28;20038;-74
2022/07/25 02:01:10;;;;;;;6.82;6.15;;;;;;;;;;5024209;28;20041;-74
2022/07/25 02:03:36;;;;;;;9.55;7.15;;;;;;;;;;5023791;28;20057;-74
2022/07/25 02:06:03;;;;;;;7.97;7.18;;;;;;;;;;5026052;28;20105;-74
2022/07/25 02:08:30;;;;;;;7.85;6.75;;;;;;;;;;5026799;28;20045;-73
2022/07/25 02:10:56;;;;;;;7.38;6.65;;;;;;;;;;5027368;28;20045;-74
2022/07/25 02:13:23;;;;;;;7.50;6.80;;;;;;;;;;5025958;28;20056;-74
2022/07/25 02:15:49;;;;;;;7.47;6.70;;;;;;;;;;5007951;28;20076;-74
2022/07/25 02:18:15;;;;;;;7.95;6.75;;;;;;;;;;5009182;28;20041;-74
2022/07/25 02:20:42;;;;;;;7.85;6.60;;;;;;;;;;5007722;28;20056;-74
2022/07/25 02:23:08;;;;;;;6.95;6.35;;;;;;;;;;5025997;28;20048;-73
2022/07/25 02:25:34;;;;;;;7.00;6.10;;;;;;;;;;5025732;28;20046;-73
2022/07/25 02:28:01;;;;;;;8.57;6.53;;;;;;;;;;5026338;28;20064;-74
2022/07/25 02:30:27;;;;;;;6.97;6.28;;;;;;;;;;5025946;28;20049;-74
2022/07/25 02:32:53;;;;;;;7.38;6.68;;;;;;;;;;5026161;28;20046;-74
2022/07/25 02:35:19;;;;;;;8.10;6.68;;;;;;;;;;5008506;28;20068;-74
2022/07/25 02:37:45;;;;;;;7.57;6.55;;;;;;;;;;5027082;28;20045;-74
2022/07/25 02:40:11;;;;;;;7.50;6.47;;;;;;;;;;5027238;28;20041;-74
2022/07/25 02:42:37;;;;;;;6.55;5.85;;;;;;;;;;5027161;28;20125;-74
2022/07/25 02:45:04;;;;;;;6.82;6.13;;;;;;;;;;5016192;28;20100;-73
2022/07/25 02:47:30;;;;;;;9.50;6.07;;;;;;;;;;5027518;28;20081;-74
2022/07/25 02:49:56;;;;;;;6.88;5.50;;;;;;;;;;5027932;28;20052;-74
2022/07/25 02:52:22;;;;;;;7.38;6.28;;;;;;;;;;5028692;28;20054;-74
2022/07/25 02:54:49;;;;;;;6.88;6.18;;;;;;;;;;5011471;28;20045;-73
2022/07/25 02:57:15;;;;;;;7.60;6.80;;;;;;;;;;5027963;28;20050;-73
2022/07/25 02:59:41;;;;;;;6.82;6.00;;;;;;;;;;5027057;28;20049;-74
2022/07/25 03:02:07;;;;;;;6.97;5.82;;;;;;;;;;5028567;28;20046;-74
2022/07/25 03:04:36;;;;;;;7.15;5.90;;;;;;;;;;5027396;28;20037;-74
2022/07/25 03:07:02;;;;;;;8.55;6.20;;;;;;;;;;5027656;28;20052;-74
2022/07/25 03:09:28;;;;;;;6.20;5.60;;;;;;;;;;5028002;28;20050;-73
2022/07/25 03:11:54;;;;;;;6.72;5.78;;;;;;;;;;5009343;28;20077;-74
2022/07/25 03:14:20;;;;;;;7.57;5.80;;;;;;;;;;5026486;28;20069;-74
2022/07/25 03:16:46;;;;;;;6.82;6.13;;;;;;;;;;5025797;28;20046;-74
2022/07/25 03:19:13;;;;;;;8.93;7.20;;;;;;;;;;5023191;28;20046;-73
2022/07/25 03:21:39;;;;;;;7.45;6.65;;;;;;;;;;5025891;28;20053;-74
2022/07/25 03:24:05;;;;;;;9.88;6.78;;;;;;;;;;5025310;28;20046;-74
2022/07/25 03:26:31;;;;;;;11.15;7.63;;;;;;;;;;5025352;28;20121;-74
2022/07/25 03:28:57;;;;;;;9.23;7.15;;;;;;;;;;5025918;28;20046;-74
2022/07/25 03:31:24;;;;;;;11.38;7.30;;;;;;;;;;5026286;28;20048;-74
2022/07/25 03:33:50;;;;;;;9.07;6.90;;;;;;;;;;5026476;28;20382;-73
2022/07/25 03:36:16;;;;;;;7.70;6.90;;;;;;;;;;5025337;28;20049;-73
2022/07/25 03:38:42;;;;;;;8.55;7.10;;;;;;;;;;5027269;28;20049;-74
2022/07/25 03:41:08;;;;;;;8.63;6.90;;;;;;;;;;5026112;28;20065;-74
2022/07/25 03:43:34;;;;;;;7.20;6.60;;;;;;;;;;5008592;28;20050;-73
2022/07/25 03:46:00;;;;;;;7.72;6.13;;;;;;;;;;5025791;28;20057;-74
2022/07/25 03:48:26;;;;;;;7.13;6.05;;;;;;;;;;5025082;28;20125;-74
2022/07/25 03:50:52;;;;;;;8.70;7.05;;;;;;;;;;5009382;28;20512;-74
2022/07/25 03:53:18;;;;;;;7.30;6.50;;;;;;;;;;5026602;28;20042;-73
2022/07/25 03:55:44;;;;;;;7.20;6.50;;;;;;;;;;5008796;28;20057;-73
2022/07/25 03:58:10;;;;;;;6.82;6.13;;;;;;;;;;5008440;28;20050;-74
2022/07/25 04:00:36;;;;;;;9.40;7.15;;;;;;;;;;5008474;28;20161;-73
2022/07/25 04:03:02;;;;;;;7.03;6.32;;;;;;;;;;5008056;28;20046;-73
2022/07/25 04:05:28;;;;;;;7.35;6.63;;;;;;;;;;5009753;28;20054;-74
2022/07/25 04:07:55;;;;;;;7.60;6.75;;;;;;;;;;5025331;28;20082;-74
2022/07/25 04:10:21;;;;;;;8.38;6.78;;;;;;;;;;5026061;28;20042;-74
2022/07/25 04:12:47;;;;;;;8.85;6.22;;;;;;;;;;5027151;28;20046;-73
2022/07/25 04:15:13;;;;;;;6.28;5.68;;;;;;;;;;5027141;28;20050;-74
2022/07/25 04:17:39;;;;;;;7.18;6.38;;;;;;;;;;5025432;28;20636;-74
2022/07/25 04:20:05;;;;;;;7.55;6.00;;;;;;;;;;5025838;28;20125;-74
2022/07/25 04:22:32;;;;;;;9.00;6.40;;;;;;;;;;5025722;28;20065;-74
2022/07/25 04:24:58;;;;;;;6.60;6.00;;;;;;;;;;5026586;28;20445;-74
2022/07/25 04:27:24;;;;;;;6.35;5.72;;;;;;;;;;5025468;28;20502;-74
2022/07/25 04:29:50;;;;;;;7.55;6.07;;;;;;;;;;5026163;28;20056;-74
2022/07/25 04:32:18;;;;;;;7.10;6.40;;;;;;;;;;5026533;28;20070;-74
2022/07/25 04:34:44;;;;;;;8.65;7.65;;;;;;;;;;5009709;28;20057;-74
2022/07/25 04:37:10;;;;;;;9.30;8.40;;;;;;;;;;5027320;28;20045;-74
2022/07/25 04:39:36;;;;;;;9.77;8.77;;;;;;;;;;5027327;28;20041;-73
2022/07/25 04:42:02;;;;;;;10.73;8.90;;;;;;;;;;5009376;28;20124;-73
2022/07/25 04:44:28;;;;;;;11.38;9.40;;;;;;;;;;5025940;28;20046;-74
2022/07/25 04:46:54;;;;;;;11.80;8.60;;;;;;;;;;5025808;28;20092;-74
2022/07/25 04:49:20;;;;;;;8.63;7.60;;;;;;;;;;5026058;28;20121;-74
2022/07/25 04:51:47;;;;;;;9.40;7.68;;;;;;;;;;5025259;28;20065;-73
2022/07/25 04:54:13;;;;;;;8.55;6.95;;;;;;;;;;5026854;28;20131;-74
2022/07/25 04:56:39;;;;;;;8.23;6.90;;;;;;;;;;4993423;28;20046;-73
2022/07/25 04:59:05;;;;;;;8.38;6.60;;;;;;;;;;5026877;28;20057;-73
2022/07/25 05:01:31;;;;;;;7.15;6.47;;;;;;;;;;5025621;28;20129;-74
2022/07/25 05:03:57;;;;;;;9.80;6.43;;;;;;;;;;5026892;28;20041;-74
2022/07/25 05:06:23;;;;;;;10.00;7.20;;;;;;;;;;5006424;28;20057;-74
2022/07/25 05:08:49;;;;;;;8.52;7.20;;;;;;;;;;5025789;28;20104;-74
2022/07/25 05:11:15;;;;;;;8.20;7.40;;;;;;;;;;5024741;28;20100;-74
2022/07/25 05:13:41;;;;;;;8.15;7.38;;;;;;;;;;5023685;28;20516;-75
2022/07/25 05:16:07;;;;;;;8.05;7.25;;;;;;;;;;5023506;28;20077;-73
2022/07/25 05:18:34;;;;;;;10.20;7.78;;;;;;;;;;5024470;28;20042;-74
2022/07/25 05:21:00;;;;;;;8.45;7.65;;;;;;;;;;5005971;28;20185;-74
2022/07/25 05:23:26;;;;;;;8.40;7.60;;;;;;;;;;5024842;28;20046;-74
2022/07/25 05:25:52;;;;;;;9.00;8.10;;;;;;;;;;5022936;28;20045;-74
2022/07/25 05:28:18;;;;;;;10.15;8.50;;;;;;;;;;5021995;28;20121;-74
2022/07/25 05:30:44;;;;;;;9.25;7.97;;;;;;;;;;5005789;28;20060;-75
2022/07/25 05:33:10;;;;;;;9.15;8.13;;;;;;;;;;5023844;28;20042;-74
2022/07/25 05:35:37;;;;;;;9.50;8.18;;;;;;;;;;5025393;28;20070;-74
2022/07/25 05:38:03;;;;;;;9.20;8.30;;;;;;;;;;5026332;28;20046;-74
2022/07/25 05:40:29;;;;;;;10.52;9.43;;;;;;;;;;5028459;28;20072;-74
2022/07/25 05:42:55;;;;;;;9.40;8.40;;;;;;;;;;5027092;28;20081;-74
2022/07/25 05:45:21;;;;;;;9.38;7.60;;;;;;;;;;5026807;28;20054;-74
2022/07/25 05:47:47;;;;;;;9.25;8.00;;;;;;;;;;5028061;28;20054;-73
2022/07/25 05:50:13;;;;;;;10.98;8.05;;;;;;;;;;5010412;28;20053;-74
2022/07/25 05:52:39;;;;;;;9.18;8.20;;;;;;;;;;5028633;28;20105;-74
2022/07/25 05:55:05;;;;;;;9.93;8.93;;;;;;;;;;4994078;28;20073;-74
2022/07/25 05:57:32;;;;;;;12.85;8.55;;;;;;;;;;5009157;28;20080;-74
2022/07/25 05:59:58;;;;;;;10.75;9.25;;;;;;;;;;5002994;28;20050;-74
2022/07/25 06:02:24;;;;;;;11.63;9.25;;;;;;;;;;5009966;28;20053;-74
2022/07/25 06:04:50;;;;;;;10.30;8.63;;;;;;;;;;5027434;28;20045;-74
2022/07/25 06:07:16;;;;;;;9.73;8.77;;;;;;;;;;5026138;28;20042;-76
2022/07/25 06:09:42;;;;;;;9.80;8.77;;;;;;;;;;5013608;28;20030;-74
2022/07/25 06:12:08;;;;;;;10.27;8.98;;;;;;;;;;5037311;28;20061;-73
2022/07/25 06:14:37;;;;;;;10.80;8.98;;;;;;;;;;5015464;28;20038;-79
2022/07/25 06:17:03;;;;;;;9.98;8.68;;;;;;;;;;5034202;28;20064;-74
2022/07/25 06:19:29;;;;;;;10.35;8.73;;;;;;;;;;5022290;28;20032;-75
2022/07/25 06:21:55;;;;;;;9.63;8.68;;;;;;;;;;5041065;28;20033;-75
2022/07/25 06:24:21;;;;;;;9.30;8.38;;;;;;;;;;5041307;28;20076;-75
2022/07/25 06:26:47;;;;;;;9.32;8.43;;;;;;;;;;5007122;28;20026;-76
2022/07/25 06:29:13;;;;;;;10.65;8.43;;;;;;;;;;5022739;28;20034;-75
2022/07/25 06:31:39;;;;;;;9.88;8.88;;;;;;;;;;5039428;28;20105;-75
2022/07/25 06:34:05;;;;;;;10.52;9.10;;;;;;;;;;5040345;28;20097;-75
2022/07/25 06:36:31;;;;;;;10.23;9.15;;;;;;;;;;5039314;28;20037;-75
2022/07/25 06:38:57;;;;;;;11.65;9.07;;;;;;;;;;5041197;28;20026;-75
2022/07/25 06:41:23;;;;;;;10.80;9.18;;;;;;;;;;5024108;28;20057;-75
2022/07/25 06:43:49;;;;;;;10.02;8.93;;;;;;;;;;5021957;28;20034;-75
2022/07/25 06:46:15;;;;;;;11.63;9.35;;;;;;;;;;5023156;28;20101;-74
2022/07/25 06:48:41;;;;;;;11.07;9.13;;;;;;;;;;5037136;28;20042;-75
2022/07/25 06:51:08;;;;;;;10.10;9.10;;;;;;;;;;5022666;28;20042;-75
2022/07/25 06:53:34;;;;;;;9.90;8.90;;;;;;;;;;5020134;28;20030;-75
2022/07/25 06:56:00;;;;;;;10.63;8.38;;;;;;;;;;5039138;28;20113;-75
2022/07/25 06:58:26;;;;;;;8.70;7.80;;;;;;;;;;5039862;28;20026;-77
2022/07/25 07:00:52;;;;;;;8.70;7.65;;;;;;;;;;5037359;28;20052;-75
2022/07/25 07:03:18;;;;;;;7.57;6.72;;;;;;;;;;5039615;28;20049;-78
2022/07/25 07:05:44;;;;;;;6.80;5.90;;;;;;;;;;5038224;28;20207;-75
2022/07/25 07:08:10;;;;;;;6.65;5.40;;;;;;;;;;5039193;28;20061;-75
2022/07/25 07:10:36;;;;;;;6.10;5.50;;;;;;;;;;5006943;28;20037;-75
2022/07/25 07:13:07;;;;;;;7.82;5.60;;;;;;;;;;5039106;28;20100;-85
2022/07/25 07:15:33;;;;;;;7.40;5.80;;;;;;;;;;5018371;28;20048;-76
2022/07/25 17:51:27;;;;;;;11.55;3.75;;;;;;;;;;5108927;27;20643;-75
2022/07/25 17:53:53;;;;;;;12.27;3.70;;;;;;;;;;5106421;28;20067;-74
2022/07/25 17:56:23;;;;;;;12.32;3.78;;;;;;;;;;5089757;28;20055;-75
2022/07/25 17:58:49;;;;;;;10.20;3.42;;;;;;;;;;5110743;28;20051;-76
2022/07/25 18:01:15;;;;;;;10.52;3.58;;;;;;;;;;5100589;28;20063;-76
2022/07/25 18:03:41;;;;;;;13.18;3.85;;;;;;;;;;5109337;28;20044;-76
2022/07/25 18:06:07;;;;;;;12.02;3.85;;;;;;;;;;5108493;28;20097;-76
2022/07/25 18:08:34;;;;;;;10.38;3.45;;;;;;;;;;5076567;28;20040;-76
2022/07/25 18:11:02;;;;;;;14.63;3.97;;;;;;;;;;5106404;28;20046;-76
2022/07/25 18:13:28;;;;;;;16.83;4.07;;;;;;;;;;5108749;28;20040;-76
2022/07/25 18:15:56;;;;;;;12.07;3.63;;;;;;;;;;5107761;28;20086;-76
2022/07/25 18:18:23;;;;;;;14.80;4.30;;;;;;;;;;5096640;28;20086;-76
2022/07/25 18:20:49;;;;;;;11.70;3.90;;;;;;;;;;5109337;28;20044;-76
2022/07/25 18:23:15;;;;;;;10.00;3.45;;;;;;;;;;5108709;28;20044;-75
2022/07/25 18:25:43;;;;;;;11.07;3.88;;;;;;;;;;5109316;28;20024;-76
2022/07/25 18:28:11;;;;;;;12.85;3.65;;;;;;;;;;5111130;28;20052;-76
2022/07/25 18:30:37;;;;;;;13.15;4.03;;;;;;;;;;5111309;28;20044;-76
2022/07/25 18:33:03;;;;;;;11.98;3.60;;;;;;;;;;5106640;28;20036;-76
2022/07/25 18:35:29;;;;;;;13.90;3.83;;;;;;;;;;5120954;28;20474;-77
2022/07/25 18:37:58;;;;;;;13.48;4.10;;;;;;;;;;5112125;28;20052;-77
2022/07/25 18:40:24;;;;;;;13.13;4.18;;;;;;;;;;5110739;28;20036;-76
2022/07/25 18:42:50;;;;;;;11.75;3.83;;;;;;;;;;5111651;28;20082;-77
2022/07/25 18:45:16;;;;;;;13.65;3.80;;;;;;;;;;5109498;28;20040;-76
2022/07/25 18:47:42;;;;;;;18.08;4.30;;;;;;;;;;5105595;28;20040;-76
2022/07/25 18:50:08;;;;;;;14.65;3.83;;;;;;;;;;5107299;28;20056;-76
2022/07/25 18:52:36;;;;;;;12.48;4.00;;;;;;;;;;5110464;28;20052;-76
2022/07/25 18:55:03;;;;;;;10.93;3.60;;;;;;;;;;5110057;28;20048;-77
2022/07/25 18:57:29;;;;;;;13.35;4.53;;;;;;;;;;5097271;28;20064;-76
2022/07/25 18:59:55;;;;;;;15.18;3.90;;;;;;;;;;5088831;28;20107;-77
2022/07/25 19:02:21;;;;;;;12.70;3.55;;;;;;;;;;5079335;28;20096;-76
2022/07/25 19:04:48;;;;;;;10.30;3.47;;;;;;;;;;5097213;28;20039;-76
2022/07/25 19:07:14;;;;;;;15.23;3.67;;;;;;;;;;5104470;28;20037;-78
2022/07/25 19:09:40;;;;;;;15.68;4.40;;;;;;;;;;5078437;28;20064;-77
2022/07/25 19:12:06;;;;;;;14.50;3.85;;;;;;;;;;5089528;28;21275;-77
2022/07/25 19:14:32;;;;;;;13.00;3.88;;;;;;;;;;5092471;28;20044;-78
2022/07/25 19:16:58;;;;;;;13.30;4.13;;;;;;;;;;5088837;28;20033;-77
2022/07/25 19:19:25;;;;;;;11.95;3.85;;;;;;;;;;5080542;28;20052;-76
2022/07/25 19:21:51;;;;;;;16.08;4.10;;;;;;;;;;5095349;28;20100;-76
2022/07/25 19:24:17;;;;;;;13.98;4.10;;;;;;;;;;5090457;28;20043;-76
2022/07/25 19:26:44;;;;;;;14.25;4.38;;;;;;;;;;5092863;28;20052;-77
2022/07/25 19:29:10;;;;;;;12.98;3.80;;;;;;;;;;5094694;28;20048;-77
2022/07/25 19:31:37;;;;;;;14.32;3.88;;;;;;;;;;5089411;28;20036;-76
2022/07/25 19:34:03;;;;;;;11.32;3.95;;;;;;;;;;5089404;28;20045;-77
2022/07/25 19:36:30;;;;;;;9.85;3.90;;;;;;;;;;5090014;28;20039;-77
2022/07/25 19:38:56;;;;;;;12.73;3.55;;;;;;;;;;5085993;28;20063;-76
2022/07/25 19:41:22;;;;;;;13.18;3.80;;;;;;;;;;5084175;28;20056;-76
2022/07/25 19:43:48;;;;;;;14.13;3.90;;;;;;;;;;5081797;28;20100;-77
2022/07/25 19:46:14;;;;;;;12.73;4.00;;;;;;;;;;5108307;28;20044;-76
2022/07/25 19:48:40;;;;;;;15.77;3.90;;;;;;;;;;5085129;28;20043;-76
2022/07/25 19:51:06;;;;;;;12.57;3.70;;;;;;;;;;5090067;28;20056;-75
2022/07/25 19:53:32;;;;;;;13.98;4.50;;;;;;;;;;5086726;28;20049;-74
2022/07/25 19:55:59;;;;;;;11.45;3.70;;;;;;;;;;5088772;28;20041;-74
2022/07/25 19:58:25;;;;;;;15.45;4.10;;;;;;;;;;5093107;28;20100;-74
2022/07/25 20:00:51;;;;;;;12.57;4.00;;;;;;;;;;5104622;28;20052;-74
2022/07/25 20:03:20;;;;;;;9.55;3.22;;;;;;;;;;5095366;28;20048;-74
2022/07/25 20:05:54;;;;;;;9.57;3.50;;;;;;;;;;5109386;28;20103;-74
2022/07/25 20:08:20;;;;;;;12.80;3.70;;;;;;;;;;5079837;28;20055;-74
2022/07/25 20:10:50;;;;;;;10.05;3.28;;;;;;;;;;5069709;28;20048;-74
2022/07/25 20:13:16;;;;;;;12.68;3.53;;;;;;;;;;5069766;28;20078;-74
2022/07/25 20:15:42;;;;;;;13.90;3.40;;;;;;;;;;5088815;28;20045;-74
2022/07/25 20:18:11;;;;;;;11.32;3.90;;;;;;;;;;5107345;28;20050;-74
2022/07/25 20:20:37;;;;;;;8.80;3.10;;;;;;;;;;5112187;28;20044;-74
2022/07/25 20:23:03;;;;;;;11.45;4.10;;;;;;;;;;5112508;28;20047;-74
2022/07/25 20:25:29;;;;;;;10.77;3.30;;;;;;;;;;5085106;28;20041;-74
2022/07/25 20:27:58;;;;;;;10.52;3.70;;;;;;;;;;5071421;28;20118;-73
2022/07/25 20:30:24;;;;;;;10.75;3.33;;;;;;;;;;5090215;28;20045;-74
2022/07/25 20:32:50;;;;;;;8.63;3.47;;;;;;;;;;5093300;28;20040;-74
2022/07/25 20:35:19;;;;;;;13.07;3.92;;;;;;;;;;5082987;28;20055;-74
2022/07/25 20:37:45;;;;;;;10.57;3.75;;;;;;;;;;5078378;28;20515;-74
2022/07/25 20:40:14;;;;;;;11.35;3.70;;;;;;;;;;5077125;28;20083;-74
2022/07/25 20:42:41;;;;;;;8.68;3.15;;;;;;;;;;5057971;28;20052;-74
2022/07/25 20:45:07;;;;;;;12.55;3.88;;;;;;;;;;5073693;28;20059;-77
2022/07/25 20:47:33;;;;;;;13.02;3.92;;;;;;;;;;5076290;28;20041;-75
2022/07/25 20:50:00;;;;;;;14.88;3.65;;;;;;;;;;5066503;28;20491;-74
2022/07/25 20:52:29;;;;;;;9.02;3.40;;;;;;;;;;5074363;28;20068;-74
2022/07/25 20:54:56;;;;;;;13.48;4.43;;;;;;;;;;5074126;28;20040;-74
2022/07/25 20:57:22;;;;;;;14.15;3.97;;;;;;;;;;5099187;28;20050;-74
2022/07/25 20:59:48;;;;;;;10.90;3.50;;;;;;;;;;5079272;28;20123;-74
2022/07/25 21:02:16;;;;;;;12.30;3.90;;;;;;;;;;5064913;28;20044;-73
2022/07/25 21:04:42;;;;;;;12.10;3.50;;;;;;;;;;5065844;28;20072;-75
2022/07/25 21:07:08;;;;;;;15.75;4.00;;;;;;;;;;5065256;28;20041;-74
2022/07/25 21:09:34;;;;;;;11.32;3.60;;;;;;;;;;5065984;28;20061;-74
2022/07/25 21:12:01;;;;;;;14.18;3.92;;;;;;;;;;5081555;28;20067;-74
2022/07/25 21:14:27;;;;;;;10.90;3.70;;;;;;;;;;5082259;28;20049;-74
2022/07/25 21:16:53;;;;;;;10.73;3.85;;;;;;;;;;5065012;28;20056;-74
2022/07/25 21:19:19;;;;;;;13.38;3.97;;;;;;;;;;5084781;28;20194;-74
2022/07/25 21:21:47;;;;;;;13.13;3.97;;;;;;;;;;5082042;28;20115;-74
2022/07/25 21:24:13;;;;;;;12.77;3.70;;;;;;;;;;5067830;28;20448;-74
2022/07/25 21:26:39;;;;;;;12.68;3.70;;;;;;;;;;5083714;28;20496;-74
2022/07/25 21:29:05;;;;;;;7.28;3.13;;;;;;;;;;5084822;28;20052;-74
2022/07/25 21:31:32;;;;;;;9.52;3.15;;;;;;;;;;5069039;28;20096;-73
2022/07/25 21:33:58;;;;;;;11.90;3.40;;;;;;;;;;5082922;28;20048;-75
2022/07/25 21:36:24;;;;;;;8.05;3.40;;;;;;;;;;5064251;28;20037;-74
2022/07/25 21:38:50;;;;;;;9.35;3.65;;;;;;;;;;5075209;28;20059;-74
2022/07/25 21:41:16;;;;;;;7.82;3.30;;;;;;;;;;5063512;28;20045;-74
2022/07/25 21:43:43;;;;;;;6.65;3.20;;;;;;;;;;5067195;28;20040;-75
2022/07/25 21:46:09;;;;;;;7.80;3.20;;;;;;;;;;5065739;28;20155;-74
2022/07/25 21:51:20;;;;;;;6.25;3.17;;;;;;;;;;5080799;28;20087;-74
2022/07/25 21:53:46;;;;;;;9.43;3.13;;;;;;;;;;5069940;28;20048;-74
2022/07/25 21:56:14;;;;;;;8.07;3.15;;;;;;;;;;5070587;28;20056;-74
2022/07/25 21:58:40;;;;;;;8.30;3.00;;;;;;;;;;5061626;28;20049;-74
2022/07/25 22:01:06;;;;;;;9.02;2.97;;;;;;;;;;5062935;28;20049;-73
2022/07/25 22:03:32;;;;;;;8.55;3.53;;;;;;;;;;5078026;28;20045;-74
2022/07/25 22:05:58;;;;;;;10.48;2.90;;;;;;;;;;5066973;28;20040;-75
2022/07/25 22:08:24;;;;;;;5.53;3.05;;;;;;;;;;5078670;28;20064;-74
2022/07/25 22:10:51;;;;;;;11.25;3.85;;;;;;;;;;5070373;28;20045;-74
2022/07/25 22:13:17;;;;;;;7.85;3.10;;;;;;;;;;5090670;28;20123;-74
2022/07/25 22:15:43;;;;;;;10.13;3.50;;;;;;;;;;5063387;28;20074;-75
2022/07/25 22:18:09;;;;;;;7.80;3.03;;;;;;;;;;5064823;28;20043;-74
2022/07/25 22:20:36;;;;;;;6.88;3.45;;;;;;;;;;5078687;28;20044;-74
2022/07/25 22:23:02;;;;;;;7.47;3.40;;;;;;;;;;5082190;28;20070;-74
2022/07/25 22:25:29;;;;;;;5.95;2.70;;;;;;;;;;5069144;28;20052;-74
2022/07/25 22:27:55;;;;;;;7.45;3.03;;;;;;;;;;5061231;28;20520;-74
2022/07/25 22:30:21;;;;;;;6.53;3.25;;;;;;;;;;5071645;28;20040;-73
2022/07/25 22:32:48;;;;;;;8.18;3.10;;;;;;;;;;5076214;28;20075;-74
2022/07/25 22:35:14;;;;;;;6.47;2.90;;;;;;;;;;5062098;28;20045;-74
2022/07/25 22:37:40;;;;;;;4.35;2.60;;;;;;;;;;5063943;28;20041;-74
2022/07/25 22:40:06;;;;;;;5.82;2.95;;;;;;;;;;5066487;28;20056;-75
2022/07/25 22:42:32;;;;;;;5.15;3.00;;;;;;;;;;5083093;28;20118;-74
2022/07/25 22:44:58;;;;;;;5.65;3.00;;;;;;;;;;5087965;28;20119;-74
2022/07/25 22:47:24;;;;;;;5.72;2.80;;;;;;;;;;5069383;28;20079;-74
2022/07/25 22:49:50;;;;;;;5.15;2.95;;;;;;;;;;5076562;28;20053;-74
2022/07/25 22:52:16;;;;;;;6.70;3.20;;;;;;;;;;5072501;28;20527;-75
2022/07/25 22:54:42;;;;;;;5.65;3.25;;;;;;;;;;5085606;28;20040;-74
2022/07/25 22:57:08;;;;;;;5.22;3.10;;;;;;;;;;5078471;28;20060;-75
2022/07/25 22:59:34;;;;;;;8.23;2.90;;;;;;;;;;5065151;28;20053;-75
2022/07/25 23:02:00;;;;;;;5.20;3.25;;;;;;;;;;5076321;28;20036;-75
2022/07/25 23:04:26;;;;;;;4.38;3.25;;;;;;;;;;5087340;28;20391;-74
2022/07/25 23:06:52;;;;;;;4.60;2.95;;;;;;;;;;5084897;28;20052;-74
2022/07/25 23:09:22;;;;;;;7.43;3.30;;;;;;;;;;5067734;28;20040;-74
2022/07/25 23:11:48;;;;;;;4.40;3.22;;;;;;;;;;5083736;28;20078;-74
2022/07/25 23:14:14;;;;;;;5.13;3.38;;;;;;;;;;5082998;28;20100;-75
2022/07/25 23:16:40;;;;;;;6.63;3.05;;;;;;;;;;5063449;28;20049;-74
2022/07/25 23:19:07;;;;;;;4.95;3.20;;;;;;;;;;5063243;28;20118;-74
2022/07/25 23:21:33;;;;;;;5.05;3.47;;;;;;;;;;5065650;28;20045;-74
2022/07/25 23:23:59;;;;;;;6.80;3.33;;;;;;;;;;5064205;28;20043;-74
2022/07/25 23:26:26;;;;;;;4.68;3.15;;;;;;;;;;5063003;28;20079;-74
2022/07/25 23:28:52;;;;;;;5.80;3.22;;;;;;;;;;5064016;28;20044;-74
2022/07/25 23:31:18;;;;;;;5.97;3.70;;;;;;;;;;5067112;28;20123;-74
2022/07/25 23:33:44;;;;;;;7.50;3.22;;;;;;;;;;5069304;28;20049;-74
2022/07/25 23:36:10;;;;;;;5.43;3.75;;;;;;;;;;5062186;28;20049;-74
2022/07/25 23:38:38;;;;;;;5.28;3.65;;;;;;;;;;5078408;28;20044;-74
2022/07/25 23:41:04;;;;;;;5.75;3.42;;;;;;;;;;5063199;28;20056;-74
2022/07/25 23:43:30;;;;;;;5.75;3.35;;;;;;;;;;5063207;28;20199;-74
2022/07/25 23:45:56;;;;;;;5.40;3.17;;;;;;;;;;5066383;28;20044;-74
2022/07/25 23:48:22;;;;;;;4.78;3.20;;;;;;;;;;5073208;28;20109;-74
2022/07/25 23:50:48;;;;;;;5.68;3.20;;;;;;;;;;5062063;28;20389;-74
2022/07/25 23:53:14;;;;;;;7.15;3.40;;;;;;;;;;5061907;28;20079;-75
2022/07/25 23:55:40;;;;;;;5.22;3.13;;;;;;;;;;5072914;28;20067;-75
2022/07/25 23:58:06;;;;;;;6.00;3.30;;;;;;;;;;5061322;28;20492;-74
